Time;durP1;ratioP1;P1;durP2;ratioP2;P2;SDS_P1;SDS_P2;PMS_P1;PMS_P2;Temp;Humidity;BMP_temperature;BMP_pressure;BME280_temperature;BME280_humidity;BME280_pressure;Samples;Min_cycle;Max_cycle;Signal;HPM_P1;HPM_P2
2022/05/17 00:02:26;;;;;;;5.12;3.17;;;;;;;8.17;65.19;100576.44;1765073;80;20943;-76
2022/05/17 00:04:56;;;;;;;6.90;3.02;;;;;;;8.13;65.35;100571.33;1769056;80;20998;-77
2022/05/17 00:07:22;;;;;;;6.00;3.52;;;;;;;8.10;65.56;100567.02;1754781;80;20990;-78
2022/05/17 00:09:50;;;;;;;6.97;3.98;;;;;;;8.07;65.74;100565.63;1755828;80;21026;-76
2022/05/17 00:12:22;;;;;;;6.22;3.40;;;;;;;8.05;65.90;100564.25;1753616;80;21046;-75
2022/05/17 00:14:52;;;;;;;5.45;2.90;;;;;;;8.04;66.04;100562.12;1764830;80;21193;-76
2022/05/17 00:17:20;;;;;;;6.05;3.25;;;;;;;8.02;66.16;100556.22;1762830;80;21545;-78
2022/05/17 00:19:47;;;;;;;6.80;3.30;;;;;;;8.01;66.28;100559.94;1762758;80;20994;-76
2022/05/17 00:22:14;;;;;;;6.80;3.33;;;;;;;7.99;66.42;100555.36;1755055;80;20990;-76
2022/05/17 00:24:43;;;;;;;6.92;3.22;;;;;;;7.98;66.53;100557.22;1769387;80;21881;-77
2022/05/17 00:27:10;;;;;;;5.65;2.98;;;;;;;7.95;66.60;100559.56;1762932;80;21422;-78
2022/05/17 00:29:37;;;;;;;5.00;3.08;;;;;;;7.90;66.76;100550.17;1767745;80;21109;-78
2022/05/17 00:32:06;;;;;;;6.45;3.70;;;;;;;7.90;66.89;100550.17;1757299;79;21042;-78
2022/05/17 00:34:34;;;;;;;5.60;3.47;;;;;;;7.88;67.07;100550.40;1762269;80;20998;-78
2022/05/17 00:37:01;;;;;;;5.37;3.25;;;;;;;7.88;67.18;100548.27;1764878;79;22224;-78
2022/05/17 00:39:29;;;;;;;6.45;3.17;;;;;;;7.86;67.30;100547.69;1761197;80;21552;-78
2022/05/17 00:41:56;;;;;;;5.40;3.47;;;;;;;7.84;67.47;100552.45;1758610;80;21557;-78
2022/05/17 00:47:40;;;;;;;6.15;3.52;;;;;;;7.85;67.81;100550.07;1765190;80;20978;-78
2022/05/17 00:50:15;;;;;;;6.62;3.27;;;;;;;7.86;68.02;100553.01;1758105;80;21295;-78
2022/05/17 00:52:46;;;;;;;5.17;3.25;;;;;;;7.88;68.22;100549.06;1758930;80;21007;-76
2022/05/17 00:55:19;;;;;;;7.83;3.98;;;;;;;7.92;68.35;100552.05;1741269;80;21110;-76
2022/05/17 00:58:09;;;;;;;6.85;3.98;;;;;;;7.95;68.46;100548.39;1728149;80;21061;-76
2022/05/17 01:00:46;;;;;;;7.62;3.80;;;;;;;7.99;68.48;100546.89;1760753;80;21100;-76
2022/05/17 01:03:15;;;;;;;7.12;3.85;;;;;;;8.04;68.55;100550.67;1764762;79;22253;-76
2022/05/17 01:05:46;;;;;;;6.05;3.45;;;;;;;8.05;68.66;100549.09;1766560;80;21050;-76
2022/05/17 01:08:15;;;;;;;7.95;3.85;;;;;;;8.10;68.78;100543.06;1760181;80;21034;-76
2022/05/17 01:10:41;;;;;;;5.97;3.60;;;;;;;8.17;68.83;100543.72;1765139;80;21442;-76
2022/05/17 01:15:55;;;;;;;6.17;3.02;;;;;;;8.30;68.79;100534.61;1760098;80;21396;-77
2022/05/17 01:18:24;;;;;;;6.35;3.40;;;;;;;8.37;68.79;100539.24;1714506;82;21019;-76
2022/05/17 01:20:52;;;;;;;9.03;3.80;;;;;;;8.42;68.80;100535.34;1717494;82;21057;-76
2022/05/17 01:23:19;;;;;;;7.45;4.37;;;;;;;8.49;68.74;100533.34;1730735;81;21014;-77
2022/05/17 01:25:47;;;;;;;8.08;4.37;;;;;;;8.56;68.34;100532.65;1760736;80;21144;-76
2022/05/17 01:28:22;;;;;;;7.17;4.45;;;;;;;8.64;67.49;100536.21;1767061;80;21143;-76
2022/05/17 01:30:49;;;;;;;9.05;4.90;;;;;;;8.76;66.84;100542.78;1766105;80;21121;-77
2022/05/17 01:33:18;;;;;;;8.83;4.62;;;;;;;8.87;66.22;100529.88;1760773;80;21105;-77
2022/05/17 01:35:45;;;;;;;9.13;4.60;;;;;;;8.97;65.73;100525.20;1761046;79;21144;-77
2022/05/17 01:38:12;;;;;;;10.55;5.87;;;;;;;9.09;65.39;100528.56;1762414;80;21093;-77
2022/05/17 01:40:39;;;;;;;8.25;4.87;;;;;;;9.18;64.27;100530.28;1753174;80;21086;-76
2022/05/17 01:43:06;;;;;;;10.23;5.65;;;;;;;9.28;62.54;100524.24;1764744;80;21062;-77
2022/05/17 01:45:34;;;;;;;9.75;5.60;;;;;;;9.36;60.23;100517.16;1763460;79;20997;-76
2022/05/17 01:48:01;;;;;;;9.00;4.90;;;;;;;9.48;58.64;100521.03;1761544;79;21054;-78
2022/05/17 01:50:27;;;;;;;10.08;5.87;;;;;;;9.57;56.64;100519.50;1763119;80;20987;-77
2022/05/17 01:52:54;;;;;;;11.70;4.95;;;;;;;9.67;55.49;100517.47;1739513;80;22215;-77
2022/05/17 01:55:22;;;;;;;10.50;5.22;;;;;;;9.76;54.82;100518.63;1759196;80;21057;-76
2022/05/17 01:57:50;;;;;;;10.60;5.40;;;;;;;9.83;53.67;100515.23;1762259;79;21557;-77
2022/05/17 02:00:20;;;;;;;10.30;5.67;;;;;;;9.88;52.09;100517.95;1765183;80;20994;-77
2022/05/17 02:02:47;;;;;;;9.48;4.95;;;;;;;9.94;51.82;100513.48;1766426;80;21598;-76
2022/05/17 02:05:20;;;;;;;9.45;5.17;;;;;;;10.01;51.49;100516.20;1759926;80;21055;-76
2022/05/17 02:07:50;;;;;;;8.25;4.37;;;;;;;10.05;51.24;100505.29;1765701;80;20982;-76
2022/05/17 02:10:19;;;;;;;7.40;4.17;;;;;;;10.10;50.85;100504.01;1760340;80;21017;-76
2022/05/17 02:12:48;;;;;;;7.95;3.87;;;;;;;10.13;50.58;100508.02;1750607;80;21489;-76
2022/05/17 02:15:15;;;;;;;10.43;4.53;;;;;;;10.16;50.55;100508.84;1757731;79;21038;-76
2022/05/17 02:17:43;;;;;;;7.25;3.83;;;;;;;10.17;50.53;100510.47;1763787;79;22015;-75
2022/05/17 02:20:10;;;;;;;8.80;4.17;;;;;;;10.18;50.06;100505.93;1756716;80;21014;-77
2022/05/17 02:22:39;;;;;;;8.95;4.47;;;;;;;10.22;50.36;100504.34;1765380;80;21371;-77
2022/05/17 02:25:08;;;;;;;8.55;3.80;;;;;;;10.23;50.65;100508.62;1756347;80;21031;-77
2022/05/17 02:27:39;;;;;;;7.30;3.87;;;;;;;10.22;50.65;100502.48;1766391;80;20995;-78
2022/05/17 02:30:09;;;;;;;7.20;3.40;;;;;;;10.23;50.70;100508.11;1763239;80;21237;-76
2022/05/17 02:32:42;;;;;;;6.87;3.58;;;;;;;10.22;50.65;100509.16;1750722;80;20921;-77
2022/05/17 02:35:10;;;;;;;6.85;3.47;;;;;;;10.20;50.59;100508.63;1756840;80;21437;-76
2022/05/17 02:37:38;;;;;;;5.17;3.27;;;;;;;10.18;50.69;100509.94;1765830;80;21054;-77
2022/05/17 02:40:08;;;;;;;7.30;3.55;;;;;;;10.17;50.88;100506.46;1764574;80;21033;-75
2022/05/17 02:42:35;;;;;;;5.65;3.17;;;;;;;10.14;50.89;100510.17;1764631;80;21099;-76
2022/05/17 02:45:05;;;;;;;5.78;3.17;;;;;;;10.13;51.22;100515.22;1760586;80;20982;-76
2022/05/17 02:47:34;;;;;;;9.30;3.77;;;;;;;10.08;52.20;100517.33;1759226;80;20974;-77
2022/05/17 02:50:03;;;;;;;6.78;3.30;;;;;;;9.97;52.68;100512.44;1762635;79;21585;-77
2022/05/17 02:52:31;;;;;;;5.90;3.17;;;;;;;9.94;52.71;100512.14;1752906;80;21077;-76
2022/05/17 02:54:58;;;;;;;5.83;3.25;;;;;;;9.92;52.43;100512.91;1763774;80;21096;-76
2022/05/17 02:57:25;;;;;;;5.60;2.75;;;;;;;9.94;52.30;100510.28;1764686;79;21045;-76
2022/05/17 02:59:53;;;;;;;6.10;3.02;;;;;;;9.96;52.33;100505.47;1762095;80;21067;-76
2022/05/17 03:02:20;;;;;;;5.72;3.17;;;;;;;10.01;52.06;100502.06;1763384;79;21609;-75
2022/05/17 03:04:50;;;;;;;6.83;2.85;;;;;;;10.06;51.50;100500.75;1760138;79;21112;-76
2022/05/17 03:07:17;;;;;;;6.30;2.92;;;;;;;10.12;50.80;100499.73;1767043;79;22440;-76
2022/05/17 03:09:46;;;;;;;5.10;2.65;;;;;;;10.21;50.54;100496.08;1765294;79;20991;-76
2022/05/17 03:12:15;;;;;;;5.50;2.50;;;;;;;10.28;50.03;100491.34;1750556;80;20999;-75
2022/05/17 03:14:42;;;;;;;6.30;2.37;;;;;;;10.37;50.17;100491.16;1765173;80;21006;-76
2022/05/17 03:17:14;;;;;;;5.00;2.70;;;;;;;10.44;49.81;100489.06;1759233;80;20959;-76
2022/05/17 03:19:41;;;;;;;7.45;3.50;;;;;;;10.50;49.21;100484.56;1761986;80;21946;-76
2022/05/17 03:22:07;;;;;;;6.08;2.90;;;;;;;10.55;48.82;100490.72;1762952;80;21042;-78
2022/05/17 03:24:36;;;;;;;6.10;3.22;;;;;;;10.59;48.15;100489.67;1761991;79;21524;-76
2022/05/17 03:27:05;;;;;;;7.83;2.90;;;;;;;10.67;47.90;100484.39;1762355;80;21002;-75
2022/05/17 03:29:34;;;;;;;6.03;2.52;;;;;;;10.76;48.03;100486.31;1761248;80;21043;-76
2022/05/17 03:32:01;;;;;;;4.25;1.98;;;;;;;10.87;47.73;100488.48;1766377;80;21494;-75
2022/05/17 03:34:29;;;;;;;5.83;2.08;;;;;;;10.97;47.38;100477.84;1742467;80;21033;-76
2022/05/17 03:36:58;;;;;;;5.22;2.45;;;;;;;11.11;47.33;100478.16;1760856;80;21530;-75
2022/05/17 03:39:26;;;;;;;12.78;6.17;;;;;;;11.22;46.67;100464.28;1754125;80;21034;-75
2022/05/17 03:41:53;;;;;;;10.35;4.05;;;;;;;11.29;46.24;100452.83;1766948;80;21074;-76
2022/05/17 03:44:20;;;;;;;4.78;2.27;;;;;;;11.38;46.33;100463.25;1763696;80;21150;-77
2022/05/17 03:46:47;;;;;;;8.23;3.80;;;;;;;11.48;45.89;100476.67;1759635;79;22094;-78
2022/05/17 03:49:14;;;;;;;8.23;3.30;;;;;;;11.58;46.00;100485.77;1762319;79;21049;-78
2022/05/17 03:51:48;;;;;;;5.35;2.08;;;;;;;11.69;46.26;100488.73;1739977;81;21046;-77
2022/05/17 03:54:19;;;;;;;3.92;1.80;;;;;;;11.78;45.98;100489.83;1761718;80;21567;-78
2022/05/17 03:56:47;;;;;;;5.30;1.80;;;;;;;11.89;45.50;100493.33;1762974;80;21224;-77
2022/05/17 03:59:14;;;;;;;4.40;1.70;;;;;;;11.98;45.38;100486.38;1757697;80;20947;-76
2022/05/17 04:01:41;;;;;;;4.70;1.82;;;;;;;12.07;45.48;100487.97;1765539;80;20997;-76
2022/05/17 04:04:08;;;;;;;3.37;1.60;;;;;;;12.15;45.49;100483.43;1765989;80;20974;-77
2022/05/17 04:06:35;;;;;;;4.72;1.80;;;;;;;12.25;45.54;100478.60;1736028;80;21494;-77
2022/05/17 04:09:02;;;;;;;4.58;1.62;;;;;;;12.35;45.20;100478.58;1762643;80;21079;-77
2022/05/17 04:11:30;;;;;;;4.08;1.90;;;;;;;12.43;44.84;100480.16;1759612;80;20979;-76
2022/05/17 04:13:57;;;;;;;3.20;1.65;;;;;;;12.50;44.66;100480.42;1761663;80;21111;-77
2022/05/17 04:16:24;;;;;;;3.25;1.50;;;;;;;12.57;44.66;100475.58;1763390;79;20928;-77
2022/05/17 04:18:51;;;;;;;3.12;1.52;;;;;;;12.60;44.19;100469.16;1764140;79;21034;-77
2022/05/17 04:21:18;;;;;;;3.20;1.35;;;;;;;12.63;43.72;100471.27;1766089;79;21429;-78
2022/05/17 04:23:45;;;;;;;3.65;1.42;;;;;;;12.63;43.62;100468.59;1763641;80;20915;-77
2022/05/17 04:26:14;;;;;;;3.50;1.40;;;;;;;12.65;43.50;100460.30;1756158;79;21073;-76
2022/05/17 04:28:43;;;;;;;2.85;1.45;;;;;;;12.67;43.46;100456.81;1759585;80;21544;-77
2022/05/17 04:31:12;;;;;;;2.22;1.27;;;;;;;12.70;43.91;100453.59;1762662;81;21162;-76
2022/05/17 04:33:40;;;;;;;5.17;1.50;;;;;;;12.77;43.73;100456.78;1757288;79;21253;-76
2022/05/17 04:36:07;;;;;;;4.17;1.50;;;;;;;12.85;43.58;100456.20;1762365;79;22294;-77
2022/05/17 04:38:35;;;;;;;2.45;1.30;;;;;;;12.95;43.35;100455.89;1763613;80;21029;-77
2022/05/17 04:41:03;;;;;;;4.40;1.50;;;;;;;13.05;42.84;100458.53;1749812;80;21007;-77
2022/05/17 04:43:31;;;;;;;3.50;1.37;;;;;;;13.08;42.68;100453.95;1751891;80;22301;-77
2022/05/17 04:45:57;;;;;;;2.67;1.20;;;;;;;13.14;42.20;100458.22;1764794;79;21113;-77
2022/05/17 04:48:24;;;;;;;4.47;1.32;;;;;;;13.21;42.34;100456.58;1764941;80;21050;-77
2022/05/17 04:50:54;;;;;;;2.35;1.00;;;;;;;13.24;42.43;100447.47;1765680;80;21089;-77
2022/05/17 04:53:21;;;;;;;3.02;1.12;;;;;;;13.30;42.18;100449.59;1764287;80;21129;-76
2022/05/17 04:55:48;;;;;;;3.00;1.20;;;;;;;13.34;41.56;100461.36;1766776;80;20936;-80
2022/05/17 04:58:14;;;;;;;2.70;1.03;;;;;;;13.39;42.05;100446.55;1767139;80;21152;-78
2022/05/17 05:00:44;;;;;;;2.57;1.10;;;;;;;13.49;41.88;100452.39;1766745;80;21240;-76
2022/05/17 05:03:11;;;;;;;3.93;1.40;;;;;;;13.58;41.85;100446.70;1755242;80;22862;-78
2022/05/17 05:05:40;;;;;;;2.93;1.30;;;;;;;13.64;41.55;100443.45;1750947;80;21202;-78
2022/05/17 05:08:08;;;;;;;3.70;1.60;;;;;;;13.72;41.11;100446.86;1763230;80;21513;-79
2022/05/17 05:10:37;;;;;;;4.77;1.50;;;;;;;13.79;41.09;100445.48;1752014;80;21186;-78
2022/05/17 05:13:04;;;;;;;4.10;1.30;;;;;;;13.87;41.09;100439.24;1766651;80;21218;-77
2022/05/17 05:15:32;;;;;;;3.63;1.40;;;;;;;13.99;40.65;100435.66;1764604;80;21323;-77
2022/05/17 05:17:59;;;;;;;2.60;1.10;;;;;;;14.09;40.47;100435.56;1767846;80;21195;-78
2022/05/17 05:20:30;;;;;;;3.17;1.20;;;;;;;14.18;39.40;100436.55;1766034;80;20981;-77
2022/05/17 05:22:56;;;;;;;2.37;1.03;;;;;;;14.34;40.52;100431.80;1763917;80;21283;-79
2022/05/17 05:25:23;;;;;;;2.60;1.13;;;;;;;14.53;39.11;100435.94;1766216;80;21165;-79
2022/05/17 05:27:53;;;;;;;2.37;1.13;;;;;;;14.66;38.72;100427.73;1758684;80;21328;-77
2022/05/17 05:30:20;;;;;;;3.10;1.47;;;;;;;14.82;38.94;100427.00;1761223;80;21698;-79
2022/05/17 05:32:49;;;;;;;8.07;3.60;;;;;;;14.96;38.83;100429.23;1754357;80;21200;-79
2022/05/17 05:35:20;;;;;;;3.53;1.80;;;;;;;15.07;38.29;100425.33;1715060;82;22051;-80
2022/05/17 05:37:49;;;;;;;6.17;2.97;;;;;;;15.18;38.00;100430.81;1716014;82;21282;-80
2022/05/17 05:40:16;;;;;;;5.10;1.83;;;;;;;15.29;37.93;100417.21;1714319;82;21257;-79
2022/05/17 05:42:44;;;;;;;5.03;1.87;;;;;;;15.35;37.97;100416.84;1714855;82;21427;-79
2022/05/17 05:45:12;;;;;;;9.40;4.27;;;;;;;15.44;37.30;100405.67;1708073;82;21356;-78
2022/05/17 05:47:40;;;;;;;9.90;4.40;;;;;;;15.56;36.44;100397.13;1701062;82;21210;-79
2022/05/17 05:50:09;;;;;;;7.03;3.37;;;;;;;15.74;36.00;100414.39;1715196;82;21236;-78
2022/05/17 05:52:38;;;;;;;6.30;3.07;;;;;;;15.92;36.21;100407.34;1707940;82;21222;-77
2022/05/17 05:55:09;;;;;;;4.80;2.43;;;;;;;16.05;36.52;100416.00;1714610;82;21249;-77
2022/05/17 05:57:37;;;;;;;4.30;1.67;;;;;;;16.10;35.69;100421.31;1714404;82;21505;-79
2022/05/17 06:00:06;;;;;;;5.87;2.10;;;;;;;16.14;36.17;100416.92;1714696;82;21302;-78
2022/05/17 06:02:35;;;;;;;5.23;1.73;;;;;;;16.25;36.25;100412.69;1709992;82;21322;-76
2022/05/17 06:05:02;;;;;;;3.40;1.80;;;;;;;16.38;35.56;100421.33;1714047;82;21281;-78
2022/05/17 06:07:31;;;;;;;4.87;1.67;;;;;;;16.38;35.45;100418.63;1695861;82;21409;-78
2022/05/17 06:09:59;;;;;;;3.03;1.37;;;;;;;16.38;35.45;100418.63;1716072;82;21266;-78
2022/05/17 06:12:27;;;;;;;5.00;1.70;;;;;;;16.30;35.77;100419.34;1714925;82;21287;-75
2022/05/17 06:14:54;;;;;;;5.70;2.40;;;;;;;16.34;37.02;100431.91;1701396;82;21440;-78
2022/05/17 06:17:27;;;;;;;7.43;2.90;;;;;;;16.34;37.02;100431.91;1711670;82;21360;-79
2022/05/17 06:19:50;;;;;;;5.43;2.30;;;;;;;16.62;35.13;100411.71;1708369;82;21482;-77
2022/05/17 06:22:18;;;;;;;4.30;2.13;;;;;;;16.62;35.13;100411.71;1713716;82;21400;-80
2022/05/17 06:24:46;;;;;;;6.00;2.23;;;;;;;16.55;35.41;100419.38;1715622;82;21522;-78
2022/05/17 06:27:13;;;;;;;3.73;1.60;;;;;;;16.45;35.33;100420.37;1716245;82;21273;-79
2022/05/17 06:29:40;;;;;;;3.13;1.33;;;;;;;16.46;35.50;100413.11;1700744;82;21465;-81
2022/05/17 06:32:12;;;;;;;3.43;1.40;;;;;;;16.74;35.61;100407.94;1716478;82;21424;-79
2022/05/17 06:34:39;;;;;;;;;;;;;;;16.74;35.61;100407.94;1718972;82;21375;-78
2022/05/17 06:37:06;;;;;;;4.63;1.50;;;;;;;17.03;35.84;100418.97;1715408;82;21304;-80
2022/05/17 06:39:35;;;;;;;3.77;1.53;;;;;;;17.03;35.84;100418.97;1715962;82;21593;-78
2022/05/17 06:42:04;;;;;;;4.40;1.20;;;;;;;17.13;33.98;100403.89;1716928;82;21758;-79
2022/05/17 06:44:32;;;;;;;3.53;1.30;;;;;;;17.09;33.95;100414.50;1724592;82;21536;-77
2022/05/17 06:47:02;;;;;;;4.37;1.37;;;;;;;17.09;33.95;100414.50;1715980;82;21671;-79
2022/05/17 06:49:31;;;;;;;4.10;1.23;;;;;;;17.27;34.52;100403.84;1700762;82;21742;-80
2022/05/17 06:52:04;;;;;;;2.63;1.13;;;;;;;17.27;34.52;100403.84;1714210;82;21557;-83
2022/05/17 06:54:31;;;;;;;3.15;1.32;;;;;;;17.44;34.00;100401.83;1700009;82;21725;-79
2022/05/17 06:57:10;;;;;;;2.83;1.13;;;;;;;17.59;33.40;100409.02;1715273;82;21034;-77
2022/05/17 06:59:39;;;;;;;2.93;1.20;;;;;;;17.75;32.43;100403.25;1714989;82;21627;-79
2022/05/17 07:02:06;;;;;;;4.03;1.60;;;;;;;17.91;31.72;100398.30;1715995;82;21701;-79
2022/05/17 07:04:34;;;;;;;3.40;1.10;;;;;;;18.01;30.75;100385.30;1714920;82;22138;-79
2022/05/17 07:07:06;;;;;;;4.40;1.10;;;;;;;18.10;30.78;100387.23;1715948;82;21687;-84
2022/05/17 07:09:34;;;;;;;4.50;1.20;;;;;;;18.16;29.98;100387.34;1711699;82;21731;-77
2022/05/17 07:14:49;;;;;;;3.00;1.00;;;;;;;18.36;29.75;100376.52;1700385;82;21737;-79
2022/05/17 07:17:20;;;;;;;2.13;1.10;;;;;;;18.43;28.56;100374.98;1717145;82;21671;-77
2022/05/17 07:19:47;;;;;;;2.57;1.20;;;;;;;18.43;29.43;100374.98;1715116;82;21554;-77
2022/05/17 07:22:14;;;;;;;4.10;1.63;;;;;;;18.47;29.02;100368.38;1715247;82;22254;-78
2022/05/17 07:24:46;;;;;;;3.10;1.27;;;;;;;18.45;28.92;100371.38;1714265;82;21643;-79
2022/05/17 07:27:13;;;;;;;2.40;0.97;;;;;;;18.50;28.54;100366.41;1714792;82;21718;-79
2022/05/17 07:29:41;;;;;;;4.53;1.20;;;;;;;18.55;28.67;100362.74;1715559;82;22286;-77
2022/05/17 07:32:09;;;;;;;2.60;1.00;;;;;;;18.71;28.29;100347.66;1714518;82;21670;-76
2022/05/17 07:34:36;;;;;;;4.07;0.90;;;;;;;18.71;28.29;100347.66;1716989;82;21059;-82
2022/05/17 07:37:04;;;;;;;3.27;1.00;;;;;;;18.74;27.61;100347.84;1715512;82;20999;-79
2022/05/17 07:39:31;;;;;;;4.53;0.90;;;;;;;18.82;27.33;100358.46;1714430;82;21551;-78
2022/05/17 07:41:59;;;;;;;4.17;1.10;;;;;;;18.91;27.83;100348.97;1715250;82;21008;-76
2022/05/17 07:44:26;;;;;;;3.07;1.23;;;;;;;19.07;28.31;100335.77;1711538;82;21117;-80
2022/05/17 07:46:55;;;;;;;3.67;0.90;;;;;;;19.16;26.78;100379.33;1715255;82;21663;-78
2022/05/17 07:49:22;;;;;;;3.93;1.00;;;;;;;19.08;26.85;100344.12;1716334;82;21098;-81
2022/05/17 07:51:49;;;;;;;3.53;0.87;;;;;;;19.07;27.05;100343.33;1717331;82;21530;-78
2022/05/17 07:54:16;;;;;;;3.57;1.10;;;;;;;19.15;26.84;100346.60;1715775;82;21038;-79
2022/05/17 07:56:43;;;;;;;2.60;1.00;;;;;;;19.34;27.58;100332.70;1716550;82;21059;-75
2022/05/17 07:59:11;;;;;;;2.67;0.90;;;;;;;19.57;26.82;100331.16;1714235;82;21010;-79
2022/05/17 08:01:38;;;;;;;4.03;1.10;;;;;;;19.73;26.77;100323.33;1711257;82;20995;-75
2022/05/17 08:04:09;;;;;;;2.50;1.00;;;;;;;19.88;27.05;100322.81;1715003;82;21272;-77
2022/05/17 08:06:39;;;;;;;1.70;0.50;;;;;;;19.95;26.31;100339.92;1714970;82;21064;-79
2022/05/17 08:09:07;;;;;;;2.40;0.50;;;;;;;19.89;26.15;100341.44;1731618;82;20967;-78
2022/05/17 08:11:34;;;;;;;2.80;0.80;;;;;;;19.88;26.80;100332.30;1715327;82;21102;-79
2022/05/17 08:14:05;;;;;;;1.27;0.53;;;;;;;19.82;25.62;100323.54;1715818;82;21039;-78
2022/05/17 08:16:33;;;;;;;4.63;0.80;;;;;;;19.79;25.73;100307.92;1715996;82;21166;-77
2022/05/17 08:19:00;;;;;;;3.30;0.80;;;;;;;19.74;25.82;100314.86;1716585;82;21028;-77
2022/05/17 08:21:27;;;;;;;1.20;0.60;;;;;;;19.56;25.17;100349.33;1715672;82;21075;-79
2022/05/17 08:23:54;;;;;;;0.97;0.60;;;;;;;19.58;25.02;100319.22;1716542;82;20988;-78
2022/05/17 08:29:07;;;;;;;1.60;0.70;;;;;;;19.94;25.28;100310.67;1716293;82;21128;-79
2022/05/17 08:31:36;;;;;;;2.40;0.70;;;;;;;20.07;26.13;100292.56;1716838;82;20956;-79
2022/05/17 08:34:08;;;;;;;3.50;0.60;;;;;;;20.15;25.25;100299.88;1708704;82;21242;-77
2022/05/17 08:36:34;;;;;;;2.47;0.62;;;;;;;20.05;25.47;100309.17;1711667;82;21005;-80
2022/05/17 08:39:01;;;;;;;4.33;0.70;;;;;;;19.93;25.83;100293.36;1763854;80;20943;-80
2022/05/17 08:41:37;;;;;;;1.20;0.57;;;;;;;19.89;26.69;100304.85;1750133;79;21675;-77
2022/05/17 08:44:11;;;;;;;0.97;0.57;;;;;;;20.09;26.07;100284.91;1758417;80;21168;-78
2022/05/17 08:47:12;;;;;;;1.33;0.50;;;;;;;20.34;25.55;100289.39;1742701;80;21002;-78
2022/05/17 08:50:00;;;;;;;2.03;0.70;;;;;;;20.56;25.80;100282.08;1763772;80;21029;-80
2022/05/17 08:52:28;;;;;;;2.13;0.70;;;;;;;20.54;24.38;100284.34;1711543;82;21690;-76
2022/05/17 08:55:27;;;;;;;2.57;0.70;;;;;;;20.19;24.93;100279.11;1735535;81;21224;-77
2022/05/17 08:58:03;;;;;;;2.37;0.60;;;;;;;20.03;25.65;100277.52;1751914;80;21093;-77
2022/05/17 09:00:48;;;;;;;2.53;0.60;;;;;;;20.06;25.57;100267.94;1766072;80;20981;-77
2022/05/17 09:03:42;;;;;;;1.07;0.60;;;;;;;19.97;26.25;100271.25;1762495;80;21038;-78
2022/05/17 09:06:24;;;;;;;3.03;0.70;;;;;;;19.84;26.51;100273.06;1743050;80;20970;-79
2022/05/17 09:09:20;;;;;;;2.93;0.70;;;;;;;19.82;26.25;100263.92;1745692;80;21414;-78
2022/05/17 09:11:52;;;;;;;2.27;0.70;;;;;;;19.98;26.01;100253.88;1709550;82;21018;-77
2022/05/17 09:14:24;;;;;;;2.90;0.60;;;;;;;20.10;25.86;100262.91;1716868;82;20991;-79
2022/05/17 09:17:03;;;;;;;2.50;0.60;;;;;;;20.22;25.99;100260.03;1726691;82;21170;-78
2022/05/17 09:19:32;;;;;;;2.07;0.60;;;;;;;20.29;25.40;100254.88;1733714;82;20969;-74
2022/05/17 09:22:00;;;;;;;1.77;0.67;;;;;;;20.25;25.30;100252.03;1736245;82;21067;-78
2022/05/17 09:24:36;;;;;;;1.07;0.70;;;;;;;20.18;25.40;100255.83;1722892;83;21029;-77
2022/05/17 09:27:09;;;;;;;1.43;0.70;;;;;;;20.12;25.85;100254.43;1727770;82;21071;-79
2022/05/17 09:29:41;;;;;;;1.97;0.70;;;;;;;20.20;26.33;100243.28;1735196;82;21127;-79
2022/05/17 09:32:11;;;;;;;;;;;;;;;20.34;24.96;100259.55;1731468;82;21045;-76
2022/05/17 09:34:45;;;;;;;1.20;0.50;;;;;;;20.30;24.96;100238.83;1727491;82;21095;-78
2022/05/17 09:37:20;;;;;;;12.77;1.27;;;;;;;20.32;25.05;100231.95;1747642;80;21474;-77
2022/05/17 09:39:52;;;;;;;3.57;0.70;;;;;;;20.43;25.17;100241.84;1745337;80;20923;-78
2022/05/17 09:42:37;;;;;;;3.37;0.90;;;;;;;20.42;25.35;100238.12;1762787;80;21113;-77
2022/05/17 09:45:07;;;;;;;2.17;0.70;;;;;;;20.31;25.17;100222.24;1719766;82;21092;-80
2022/05/17 09:47:48;;;;;;;1.90;0.70;;;;;;;20.29;24.93;100211.48;1709773;83;21071;-80
2022/05/17 09:53:07;;;;;;;2.10;0.77;;;;;;;20.08;25.78;100220.41;1728460;82;21460;-78
2022/05/17 09:55:37;;;;;;;1.80;0.80;;;;;;;20.00;25.62;100230.73;1721449;82;20950;-76
2022/05/17 09:58:11;;;;;;;2.93;0.97;;;;;;;20.10;25.57;100224.13;1733041;82;20985;-78
2022/05/17 10:00:46;;;;;;;2.70;0.80;;;;;;;20.17;25.05;100205.98;1729902;80;21844;-76
2022/05/17 10:03:34;;;;;;;2.93;0.90;;;;;;;20.23;25.37;100214.95;1727677;82;21009;-77
2022/05/17 10:06:09;;;;;;;2.37;0.80;;;;;;;20.29;25.90;100210.13;1728603;82;21570;-78
2022/05/17 10:09:10;;;;;;;3.03;0.80;;;;;;;20.30;25.36;100203.57;1730500;82;21045;-75
2022/05/17 10:11:57;;;;;;;3.53;1.13;;;;;;;20.32;25.68;100203.48;1726021;82;21057;-77
2022/05/17 10:14:44;;;;;;;3.80;1.00;;;;;;;20.31;26.01;100199.75;1724937;82;21699;-77
2022/05/17 10:17:42;;;;;;;3.30;0.93;;;;;;;20.19;26.35;100193.69;1728860;82;21079;-77
2022/05/17 10:20:16;;;;;;;4.33;1.20;;;;;;;20.07;26.16;100198.49;1763132;80;21481;-78
2022/05/17 10:23:07;;;;;;;3.83;1.07;;;;;;;19.96;26.42;100195.12;1764353;80;21022;-77
2022/05/17 10:25:56;;;;;;;3.17;1.10;;;;;;;19.90;26.55;100178.25;1757005;80;20990;-76
2022/05/17 10:28:40;;;;;;;4.13;1.13;;;;;;;19.88;26.77;100196.77;1752443;80;21538;-79
2022/05/17 10:31:26;;;;;;;5.70;1.23;;;;;;;20.02;26.84;100182.41;1750294;80;20975;-77
2022/05/17 10:34:41;;;;;;;3.97;1.30;;;;;;;20.26;26.61;100181.75;1754869;80;20982;-78
2022/05/17 10:37:19;;;;;;;2.80;1.10;;;;;;;20.29;25.67;100212.84;1764810;80;21018;-77
2022/05/17 10:40:04;;;;;;;3.10;1.00;;;;;;;20.28;26.03;100160.52;1756753;80;21011;-77
2022/05/17 10:42:33;;;;;;;2.97;1.10;;;;;;;20.37;24.98;100163.17;1756922;80;21470;-77
2022/05/17 10:45:00;;;;;;;3.47;1.00;;;;;;;20.39;24.78;100169.05;1752207;81;20939;-78
2022/05/17 10:47:35;;;;;;;4.23;1.90;;;;;;;20.28;24.86;100165.95;1764291;80;21061;-79
2022/05/17 10:50:23;;;;;;;4.90;1.60;;;;;;;20.11;25.54;100153.89;1759373;80;21049;-75
2022/05/17 10:53:50;;;;;;;3.40;1.60;;;;;;;20.08;27.00;100151.84;1749373;81;21036;-79
2022/05/17 10:56:42;;;;;;;3.47;1.23;;;;;;;20.20;26.59;100145.09;1759721;80;21812;-79
2022/05/17 10:59:57;;;;;;;3.20;1.45;;;;;;;20.60;25.66;100169.85;1760683;80;21509;-77
2022/05/17 11:02:36;;;;;;;4.67;1.27;;;;;;;20.80;25.36;100128.86;1760787;80;21447;-78
2022/05/17 11:05:23;;;;;;;3.67;1.33;;;;;;;20.97;24.69;100136.59;1763910;80;21045;-79
2022/05/17 11:08:24;;;;;;;4.50;1.30;;;;;;;20.98;23.93;100134.09;1760765;80;21081;-79
2022/05/17 11:10:59;;;;;;;4.27;1.70;;;;;;;20.88;24.47;100138.60;1766168;80;21210;-78
2022/05/17 11:13:38;;;;;;;7.33;1.70;;;;;;;20.79;25.23;100142.75;1766670;79;20908;-77
2022/05/17 11:16:14;;;;;;;5.27;1.40;;;;;;;20.73;25.63;100142.73;1753398;80;21026;-77
2022/05/17 11:18:47;;;;;;;4.50;1.80;;;;;;;20.75;25.13;100153.48;1755760;80;21057;-76
2022/05/17 11:21:37;;;;;;;4.63;1.80;;;;;;;20.78;25.90;100135.18;1766822;80;21077;-77
2022/05/17 11:24:49;;;;;;;6.10;1.80;;;;;;;20.79;25.14;100146.25;1760876;79;21256;-74
2022/05/17 11:27:50;;;;;;;7.77;2.17;;;;;;;20.68;24.33;100119.33;1757089;81;21014;-76
2022/05/17 11:30:22;;;;;;;7.05;1.60;;;;;;;20.53;24.88;100130.27;1710133;83;21070;-77
2022/05/17 11:33:36;;;;;;;3.83;1.00;;;;;;;20.53;25.92;100120.77;1737815;80;21075;-75
2022/05/17 11:36:10;;;;;;;5.63;1.70;;;;;;;20.60;25.99;100147.36;1778880;80;20982;-77
2022/05/17 11:38:47;;;;;;;6.43;1.90;;;;;;;20.68;26.61;100113.11;1762316;79;21156;-78
2022/05/17 11:41:39;;;;;;;3.97;1.63;;;;;;;20.90;25.83;100100.49;1759448;80;21593;-79
2022/05/17 11:44:27;;;;;;;4.97;1.35;;;;;;;21.15;25.65;100097.78;1758849;80;20987;-78
2022/05/17 11:46:58;;;;;;;9.50;1.27;;;;;;;21.24;23.50;100094.40;1742774;80;21064;-77
2022/05/17 11:49:29;;;;;;;5.53;1.20;;;;;;;21.18;24.89;100087.03;1770243;80;21001;-78
2022/05/17 11:52:08;;;;;;;4.53;1.15;;;;;;;21.10;24.42;100125.97;1766303;80;21856;-78
2022/05/17 11:54:47;;;;;;;5.60;1.70;;;;;;;20.95;25.10;100100.83;1759002;80;21050;-77
2022/05/17 11:57:32;;;;;;;5.67;1.32;;;;;;;20.80;25.34;100095.50;1766659;80;21113;-77
2022/05/17 12:00:09;;;;;;;2.73;1.13;;;;;;;20.85;25.69;100079.77;1764722;80;21557;-76
2022/05/17 12:02:48;;;;;;;;;;;;;;;21.05;25.04;100088.95;1742197;80;21565;-77
2022/05/17 12:05:43;;;;;;;4.27;0.97;;;;;;;21.10;24.16;100072.23;1757451;80;21095;-76